createdAt,value
2022-12-22T00:00:22.845Z,0.91
2022-12-22T00:03:08.872Z,0.84
2022-12-22T00:05:55.328Z,0.82
2022-12-22T00:08:41.713Z,0.82
2022-12-22T00:11:32.056Z,0.72
2022-12-22T00:14:18.622Z,0.60
2022-12-22T00:17:05.806Z,0.72
2022-12-22T00:19:54.476Z,0.81
2022-12-22T00:22:45.278Z,0.80
2022-12-22T00:25:34.702Z,0.58
2022-12-22T00:28:24.412Z,0.32
2022-12-22T00:31:10.551Z,0.13
2022-12-22T00:33:57.872Z,0.14
2022-12-22T00:36:44.008Z,0.20
2022-12-22T00:39:32.770Z,0.26
2022-12-22T00:42:18.860Z,0.11
2022-12-22T00:45:05.048Z,0.26
2022-12-22T00:47:51.328Z,0.21
2022-12-22T00:50:38.073Z,0.33
2022-12-22T00:53:24.416Z,0.39
2022-12-22T00:56:10.688Z,0.35
2022-12-22T00:58:57.025Z,0.41
2022-12-22T01:01:43.511Z,0.41
2022-12-22T01:04:30.155Z,0.49
2022-12-22T01:07:16.952Z,0.49
2022-12-22T01:10:08.083Z,0.52
2022-12-22T01:12:57.372Z,0.55
2022-12-22T01:15:46.087Z,0.43
2022-12-22T01:18:32.931Z,0.35
2022-12-22T01:21:18.968Z,0.15
2022-12-22T01:24:05.756Z,0.08
2022-12-22T01:26:51.904Z,-0.01
2022-12-22T01:29:38.063Z,-0.06
2022-12-22T01:32:33.467Z,0.08
2022-12-22T01:35:19.502Z,0.12
2022-12-22T01:38:05.494Z,-0.12
2022-12-22T01:40:51.502Z,-0.15
2022-12-22T01:43:46.318Z,-0.10
2022-12-22T01:46:47.476Z,-0.05
2022-12-22T01:49:40.257Z,-0.23
2022-12-22T01:52:29.898Z,-0.29
2022-12-22T01:55:23.358Z,-0.17
2022-12-22T01:58:10.096Z,-0.16
2022-12-22T02:00:56.089Z,-0.11
2022-12-22T02:03:42.321Z,0.10
2022-12-22T02:06:59.495Z,-0.01
2022-12-22T02:10:08.264Z,-0.20
2022-12-22T02:13:32.593Z,-0.36
2022-12-22T02:16:29.571Z,-0.23
2022-12-22T02:20:34.315Z,-0.26
2022-12-22T02:23:53.825Z,-0.23
2022-12-22T02:26:56.425Z,-0.01
2022-12-22T02:29:52.952Z,0.02
2022-12-22T02:32:38.844Z,-0.04
2022-12-22T02:35:34.095Z,-0.02
2022-12-22T02:38:45.896Z,-0.17
2022-12-22T02:41:58.167Z,-0.25
2022-12-22T02:45:09.699Z,-0.31
2022-12-22T02:48:09.469Z,-0.24
2022-12-22T02:51:11.305Z,-0.39
2022-12-22T02:53:59.212Z,-0.30
2022-12-22T02:56:45.776Z,-0.33
2022-12-22T02:59:32.040Z,-0.16
2022-12-22T03:02:18.375Z,-0.10
2022-12-22T03:05:04.759Z,-0.14
2022-12-22T03:07:50.834Z,-0.11
2022-12-22T03:10:36.802Z,-0.07
2022-12-22T03:13:22.737Z,0.00
2022-12-22T03:16:08.634Z,-0.03
2022-12-22T03:18:55.196Z,-0.11
2022-12-22T03:21:41.497Z,-0.16
2022-12-22T03:24:27.762Z,-0.04
2022-12-22T03:26:55.377Z,-0.05
2022-12-22T03:29:22.940Z,-0.03
2022-12-22T03:31:50.494Z,0.01
2022-12-22T03:34:18.203Z,-0.10
2022-12-22T03:36:45.825Z,-0.11
2022-12-22T03:39:14.771Z,-0.08
2022-12-22T03:42:00.820Z,-0.01
2022-12-22T03:44:46.680Z,-0.06
2022-12-22T03:47:14.412Z,-0.30
2022-12-22T03:49:41.976Z,-0.22
2022-12-22T03:52:10.178Z,-0.23
2022-12-22T03:54:37.645Z,-0.30
2022-12-22T03:57:05.191Z,-0.33
2022-12-22T03:59:32.756Z,-0.41
2022-12-22T04:02:00.504Z,-0.32
2022-12-22T04:04:28.174Z,-0.36
2022-12-22T04:06:56.369Z,-0.40
2022-12-22T04:09:24.985Z,-0.51
2022-12-22T04:12:11.414Z,-0.63
2022-12-22T04:14:38.881Z,-0.70
2022-12-22T04:17:09.800Z,-0.56
2022-12-22T04:19:37.380Z,-0.48
2022-12-22T04:22:05.318Z,-0.56
2022-12-22T04:24:32.785Z,-0.55
2022-12-22T04:27:00.488Z,-0.52
2022-12-22T04:29:28.017Z,-0.65
2022-12-22T04:31:58.699Z,-0.56
2022-12-22T04:34:26.308Z,-0.48
2022-12-22T04:37:04.441Z,-0.50
2022-12-22T04:39:44.796Z,-0.54
2022-12-22T04:42:12.337Z,-0.65
2022-12-22T04:44:39.908Z,-0.59
2022-12-22T04:47:07.610Z,-0.56
2022-12-22T04:49:35.071Z,-0.52
2022-12-22T04:52:02.581Z,-0.49
2022-12-22T04:54:30.212Z,-0.47
2022-12-22T04:56:57.900Z,-0.43
2022-12-22T04:59:25.606Z,-0.48
2022-12-22T05:01:53.154Z,-0.66
2022-12-22T05:04:23.822Z,-0.85
2022-12-22T05:06:51.641Z,-0.93
2022-12-22T05:09:19.079Z,-0.83
2022-12-22T05:11:46.604Z,-0.67
2022-12-22T05:14:14.176Z,-0.57
2022-12-22T05:16:41.740Z,-0.74
2022-12-22T05:19:09.382Z,-0.54
2022-12-22T05:21:36.915Z,-0.73
2022-12-22T05:24:04.833Z,-0.63
2022-12-22T05:26:32.306Z,-0.86
2022-12-22T05:29:00.181Z,-0.83
2022-12-22T05:31:27.863Z,-0.83
2022-12-22T05:33:55.869Z,-0.82
2022-12-22T05:36:23.308Z,-0.93
2022-12-22T05:38:50.803Z,-0.78
2022-12-22T05:41:18.226Z,-0.82
2022-12-22T05:43:45.710Z,-0.91
2022-12-22T05:46:13.234Z,-0.90
2022-12-22T05:48:41.013Z,-0.87
2022-12-22T05:51:09.885Z,-0.99
2022-12-22T05:53:38.504Z,-0.76
2022-12-22T05:56:07.252Z,-0.80
2022-12-22T05:58:37.711Z,-0.86
2022-12-22T06:01:05.956Z,-0.98
2022-12-22T06:03:35.009Z,-0.94
2022-12-22T06:06:02.831Z,-0.79
2022-12-22T06:08:30.471Z,-0.68
2022-12-22T06:10:59.431Z,-0.68
2022-12-22T06:13:29.908Z,-0.70
2022-12-22T06:15:57.492Z,-0.85
2022-12-22T06:18:25.156Z,-0.85
2022-12-22T06:20:53.654Z,-0.56
2022-12-22T06:23:22.470Z,-0.63
2022-12-22T06:26:03.095Z,-0.59
2022-12-22T06:28:31.190Z,-0.42
2022-12-22T06:30:59.510Z,-0.37
2022-12-22T06:33:27.059Z,-0.22
2022-12-22T06:35:58.959Z,-0.04
2022-12-22T06:38:28.610Z,-0.05
2022-12-22T06:40:56.882Z,-0.11
2022-12-22T06:43:24.618Z,0.07
2022-12-22T06:45:52.708Z,0.27
2022-12-22T06:48:20.746Z,0.23
2022-12-22T06:50:48.331Z,0.34
2022-12-22T06:53:19.358Z,0.50
2022-12-22T06:55:46.963Z,0.59
2022-12-22T06:58:14.604Z,0.77
2022-12-22T07:00:43.402Z,0.82
2022-12-22T07:03:11.199Z,0.99
2022-12-22T07:05:39.003Z,1.09
2022-12-22T07:08:09.171Z,1.09
2022-12-22T07:10:55.817Z,1.47
2022-12-22T07:13:24.525Z,1.48
2022-12-22T07:16:00.043Z,1.54
2022-12-22T07:18:32.217Z,1.74
2022-12-22T07:21:02.332Z,1.90
2022-12-22T07:23:30.740Z,1.93
2022-12-22T07:25:59.154Z,2.17
2022-12-22T07:28:26.911Z,2.42
2022-12-22T07:30:56.751Z,2.45
2022-12-22T07:33:25.372Z,2.59
2022-12-22T07:36:15.802Z,2.84
2022-12-22T07:38:48.494Z,3.01
2022-12-22T07:41:37.539Z,3.07
2022-12-22T07:44:07.731Z,3.54
2022-12-22T07:46:38.881Z,3.40
2022-12-22T07:49:28.972Z,3.46
2022-12-22T07:52:01.939Z,3.55
2022-12-22T07:54:30.175Z,3.71
2022-12-22T07:56:58.260Z,3.74
2022-12-22T07:59:25.810Z,3.80
2022-12-22T08:01:53.543Z,3.90
2022-12-22T08:04:23.272Z,4.25
2022-12-22T08:06:50.900Z,4.19
2022-12-22T08:09:21.744Z,4.38
2022-12-22T08:11:50.277Z,4.55
2022-12-22T08:14:17.894Z,4.68
2022-12-22T08:16:45.475Z,5.04
2022-12-22T08:19:14.035Z,5.03
2022-12-22T08:21:44.193Z,5.19
2022-12-22T08:24:17.740Z,5.25
2022-12-22T08:26:51.211Z,5.50
2022-12-22T08:29:26.731Z,5.88
2022-12-22T08:31:56.059Z,6.19
2022-12-22T08:34:23.666Z,6.20
2022-12-22T08:36:55.508Z,6.45
2022-12-22T08:39:24.954Z,6.68
2022-12-22T08:41:52.791Z,6.94
2022-12-22T08:44:25.036Z,7.22
2022-12-22T08:46:54.490Z,7.25
2022-12-22T08:49:23.354Z,6.99
2022-12-22T08:51:51.463Z,7.04
2022-12-22T08:54:19.632Z,6.87
2022-12-22T08:56:47.299Z,7.15
2022-12-22T08:59:15.625Z,7.59
2022-12-22T09:01:48.212Z,7.60
2022-12-22T09:04:19.079Z,7.97
2022-12-22T09:06:46.881Z,7.93
2022-12-22T09:09:16.638Z,8.29
2022-12-22T09:11:44.976Z,8.40
2022-12-22T09:14:13.616Z,8.42
2022-12-22T09:16:41.520Z,8.95
2022-12-22T09:19:09.463Z,9.25
2022-12-22T09:21:38.161Z,9.81
2022-12-22T09:24:07.689Z,9.74
2022-12-22T09:26:35.901Z,9.66
2022-12-22T09:29:04.235Z,9.69
2022-12-22T09:31:32.496Z,9.22
2022-12-22T09:34:00.444Z,8.99
2022-12-22T09:36:31.719Z,9.22
2022-12-22T09:38:59.597Z,9.67
2022-12-22T09:41:43.814Z,9.92
2022-12-22T09:44:33.092Z,10.75
2022-12-22T09:47:04.820Z,11.23
2022-12-22T09:49:32.551Z,11.64
2022-12-22T09:52:03.719Z,12.03
2022-12-22T09:54:32.038Z,11.71
2022-12-22T09:56:59.836Z,11.47
2022-12-22T09:59:30.226Z,10.86
2022-12-22T10:02:32.973Z,10.39
2022-12-22T10:05:45.296Z,9.81
2022-12-22T10:08:17.020Z,9.62
2022-12-22T10:10:44.569Z,9.92
2022-12-22T10:13:19.688Z,9.87
2022-12-22T10:15:48.118Z,9.56
2022-12-22T10:18:26.303Z,9.29
2022-12-22T10:21:11.878Z,9.15
2022-12-22T10:23:45.451Z,9.14
2022-12-22T10:26:27.989Z,9.12
2022-12-22T10:29:18.370Z,9.33
2022-12-22T10:32:04.433Z,9.15
2022-12-22T10:34:32.633Z,8.85
2022-12-22T10:37:06.194Z,8.79
2022-12-22T10:39:40.680Z,8.85
2022-12-22T10:42:13.718Z,9.32
2022-12-22T10:44:48.018Z,9.41
2022-12-22T10:47:20.574Z,9.65
2022-12-22T10:52:31.035Z,9.53
2022-12-22T10:55:29.339Z,10.02
2022-12-22T10:58:16.066Z,10.39
2022-12-22T11:00:45.212Z,11.11
2022-12-22T11:03:22.612Z,11.78
2022-12-22T11:05:52.818Z,12.45
2022-12-22T11:08:21.945Z,13.34
2022-12-22T11:11:19.216Z,13.84
2022-12-22T11:14:23.357Z,14.04
2022-12-22T11:17:04.184Z,13.49
2022-12-22T11:19:34.506Z,12.99
2022-12-22T11:22:38.023Z,12.02
2022-12-22T11:25:37.913Z,11.96
2022-12-22T11:28:21.362Z,11.38
2022-12-22T11:31:12.885Z,11.36
2022-12-22T11:34:06.433Z,11.45
2022-12-22T11:37:10.181Z,11.67
2022-12-22T11:39:46.243Z,11.99
2022-12-22T11:42:55.472Z,12.81
2022-12-22T11:45:48.563Z,13.27
2022-12-22T11:48:53.603Z,13.93
2022-12-22T11:51:39.856Z,14.35
2022-12-22T11:54:32.749Z,14.42
2022-12-22T11:57:40.269Z,13.85
2022-12-22T12:00:11.022Z,13.91
2022-12-22T12:03:19.528Z,13.38
2022-12-22T12:06:54.246Z,13.52
2022-12-22T12:10:16.387Z,13.89
2022-12-22T12:12:56.811Z,14.03
2022-12-22T12:15:31.884Z,13.91
2022-12-22T12:18:52.685Z,14.50
2022-12-22T12:21:45.835Z,14.08
2022-12-22T12:24:25.439Z,14.01
2022-12-22T12:27:26.847Z,13.97
2022-12-22T12:33:36.806Z,13.75
2022-12-22T12:36:12.454Z,13.70
2022-12-22T12:39:08.825Z,13.84
2022-12-22T12:41:51.734Z,14.20
2022-12-22T12:44:25.741Z,15.04
2022-12-22T12:46:59.893Z,14.94
2022-12-22T12:49:36.290Z,15.47
2022-12-22T12:52:09.372Z,15.67
2022-12-22T12:54:43.385Z,15.86
2022-12-22T12:57:30.385Z,15.96
2022-12-22T13:00:00.410Z,15.90
2022-12-22T13:02:28.302Z,15.95
2022-12-22T13:05:02.928Z,16.09
2022-12-22T13:08:07.770Z,15.87
2022-12-22T13:10:55.120Z,16.06
2022-12-22T13:13:25.471Z,16.16
2022-12-22T13:16:02.367Z,16.13
2022-12-22T13:18:40.739Z,16.44
2022-12-22T13:21:52.175Z,16.19
2022-12-22T13:24:30.115Z,16.30
2022-12-22T13:27:05.287Z,16.46
2022-12-22T13:29:46.906Z,17.03
2022-12-22T13:32:30.486Z,16.70
2022-12-22T13:35:47.848Z,17.01
2022-12-22T13:38:33.176Z,16.42
2022-12-22T13:41:04.894Z,16.53
2022-12-22T13:43:33.884Z,16.64
2022-12-22T13:46:04.328Z,16.85
2022-12-22T13:48:43.610Z,16.72
2022-12-22T13:51:22.212Z,16.79
2022-12-22T13:54:08.371Z,16.79
2022-12-22T13:56:47.476Z,16.30
2022-12-22T13:59:43.625Z,16.11
2022-12-22T14:02:18.600Z,15.77
2022-12-22T14:05:06.287Z,15.58
2022-12-22T14:07:34.174Z,15.44
2022-12-22T14:10:01.803Z,15.24
2022-12-22T14:12:42.760Z,14.98
2022-12-22T14:15:18.897Z,14.92
2022-12-22T14:17:53.930Z,14.69
2022-12-22T14:20:35.764Z,14.80
2022-12-22T14:23:27.083Z,14.18
2022-12-22T14:25:56.859Z,13.28
2022-12-22T14:28:42.904Z,12.71
2022-12-22T14:31:13.500Z,12.12
2022-12-22T14:33:57.238Z,11.80
2022-12-22T14:36:26.984Z,11.45
2022-12-22T14:39:07.143Z,11.16
2022-12-22T14:41:53.469Z,10.81
2022-12-22T14:44:43.998Z,10.55
2022-12-22T14:47:20.550Z,10.40
2022-12-22T14:49:57.024Z,10.09
2022-12-22T14:52:45.438Z,9.88
2022-12-22T14:55:34.648Z,9.63
2022-12-22T14:58:11.341Z,9.35
2022-12-22T15:00:46.228Z,9.22
2022-12-22T15:03:37.461Z,9.03
2022-12-22T15:06:25.531Z,8.83
2022-12-22T15:09:07.589Z,8.69
2022-12-22T15:11:41.280Z,8.54
2022-12-22T15:14:26.169Z,8.35
2022-12-22T15:17:01.819Z,8.20
2022-12-22T15:19:39.682Z,8.03
2022-12-22T15:22:11.985Z,7.91
2022-12-22T15:24:39.701Z,7.83
2022-12-22T15:27:07.230Z,7.79
2022-12-22T15:29:34.940Z,7.65
2022-12-22T15:32:02.508Z,7.50
2022-12-22T15:34:32.681Z,7.38
2022-12-22T15:37:00.488Z,7.36
2022-12-22T15:39:28.124Z,7.23
2022-12-22T15:41:55.857Z,7.18
2022-12-22T15:44:23.469Z,7.05
2022-12-22T15:46:58.879Z,6.95
2022-12-22T15:49:29.898Z,6.81
2022-12-22T15:52:02.051Z,6.67
2022-12-22T15:54:33.203Z,6.65
2022-12-22T15:57:01.816Z,6.56
2022-12-22T15:59:31.090Z,6.53
2022-12-22T16:02:01.807Z,6.51
2022-12-22T16:04:30.579Z,6.44
2022-12-22T16:06:59.831Z,6.41
2022-12-22T16:09:38.189Z,6.34
2022-12-22T16:12:18.989Z,6.32
2022-12-22T16:14:53.449Z,6.22
2022-12-22T16:17:26.240Z,6.14
2022-12-22T16:19:55.778Z,6.10
2022-12-22T16:22:34.775Z,6.02
2022-12-22T16:25:09.713Z,6.04
2022-12-22T16:27:38.695Z,6.04
2022-12-22T16:30:20.059Z,6.01
2022-12-22T16:32:49.441Z,5.95
2022-12-22T16:35:33.542Z,5.89
2022-12-22T16:38:42.276Z,5.75
2022-12-22T16:41:26.760Z,5.61
2022-12-22T16:44:05.507Z,5.53
2022-12-22T16:46:40.140Z,5.44
2022-12-22T16:49:10.339Z,5.36
2022-12-22T16:51:49.012Z,5.25
2022-12-22T16:54:17.482Z,5.21
2022-12-22T16:56:48.146Z,5.12
2022-12-22T16:59:18.423Z,5.03
2022-12-22T17:01:54.520Z,5.07
2022-12-22T17:04:52.130Z,5.13
2022-12-22T17:07:20.305Z,5.08
2022-12-22T17:09:57.579Z,5.00
2022-12-22T17:12:30.253Z,4.94
2022-12-22T17:15:00.287Z,4.96
2022-12-22T17:17:33.116Z,4.99
2022-12-22T17:20:05.438Z,4.95
2022-12-22T17:22:35.760Z,4.89
2022-12-22T17:25:07.987Z,4.86
2022-12-22T17:27:42.552Z,4.83
2022-12-22T17:30:25.994Z,4.83
2022-12-22T17:32:55.326Z,4.77
2022-12-22T17:35:29.010Z,4.63
2022-12-22T17:38:17.903Z,4.60
2022-12-22T17:40:47.066Z,4.45
2022-12-22T17:43:20.223Z,4.45
2022-12-22T17:45:50.692Z,4.38
2022-12-22T17:48:18.616Z,4.27
2022-12-22T17:50:50.800Z,4.15
2022-12-22T17:53:41.999Z,4.13
2022-12-22T17:56:24.065Z,4.08
2022-12-22T17:58:55.989Z,4.01
2022-12-22T18:01:32.128Z,4.15
2022-12-22T18:04:03.138Z,4.02
2022-12-22T18:06:48.409Z,4.01
2022-12-22T18:09:22.242Z,3.98
2022-12-22T18:11:51.136Z,4.07
2022-12-22T18:14:22.630Z,3.94
2022-12-22T18:16:50.817Z,3.92
2022-12-22T18:19:28.122Z,3.83
2022-12-22T18:22:21.003Z,3.83
2022-12-22T18:24:53.241Z,3.90
2022-12-22T18:27:22.365Z,4.09
2022-12-22T18:29:51.148Z,3.97
2022-12-22T18:32:27.511Z,3.80
2022-12-22T18:34:58.602Z,3.69
2022-12-22T18:37:29.906Z,3.69
2022-12-22T18:40:26.249Z,3.67
2022-12-22T18:42:59.680Z,3.53
2022-12-22T18:45:32.048Z,3.47
2022-12-22T18:48:07.689Z,3.44
2022-12-22T18:50:35.725Z,3.46
2022-12-22T18:53:27.536Z,3.34
2022-12-22T18:55:59.594Z,3.32
2022-12-22T18:58:29.105Z,3.23
2022-12-22T19:01:04.720Z,3.33
2022-12-22T19:03:35.793Z,3.29
2022-12-22T19:06:08.964Z,3.33
2022-12-22T19:08:45.643Z,3.22
2022-12-22T19:11:24.762Z,3.15
2022-12-22T19:13:55.684Z,3.13
2022-12-22T19:16:50.039Z,3.12
2022-12-22T19:19:24.222Z,2.94
2022-12-22T19:21:55.779Z,2.78
2022-12-22T19:24:26.673Z,2.70
2022-12-22T19:27:03.597Z,2.73
2022-12-22T19:29:31.954Z,2.76
2022-12-22T19:32:07.198Z,2.83
2022-12-22T19:34:35.018Z,2.74
2022-12-22T19:37:03.634Z,2.72
2022-12-22T19:39:31.303Z,2.84
2022-12-22T19:41:59.863Z,2.92
2022-12-22T19:44:31.016Z,2.92
2022-12-22T19:47:00.895Z,2.90
2022-12-22T19:49:29.690Z,2.72
2022-12-22T19:51:58.124Z,2.70
2022-12-22T19:54:26.113Z,2.61
2022-12-22T19:56:59.446Z,2.49
2022-12-22T19:59:49.762Z,2.30
2022-12-22T20:02:29.539Z,2.28
2022-12-22T20:05:02.525Z,2.31
2022-12-22T20:07:39.107Z,2.18
2022-12-22T20:10:09.994Z,2.21
2022-12-22T20:12:42.398Z,2.04
2022-12-22T20:15:21.796Z,2.01
2022-12-22T20:17:52.165Z,2.02
2022-12-22T20:20:30.487Z,2.14
2022-12-22T20:23:07.377Z,2.13
2022-12-22T20:25:42.606Z,2.14
2022-12-22T20:28:34.540Z,2.10
2022-12-22T20:31:03.292Z,2.16
2022-12-22T20:33:34.321Z,2.16
2022-12-22T20:36:04.166Z,2.23
2022-12-22T20:38:42.192Z,2.17
2022-12-22T20:41:10.855Z,2.18
2022-12-22T20:43:39.671Z,2.30
2022-12-22T20:46:27.638Z,2.31
2022-12-22T20:49:04.562Z,2.25
2022-12-22T20:51:40.516Z,2.31
2022-12-22T20:54:09.707Z,2.31
2022-12-22T20:56:39.793Z,2.19
2022-12-22T20:59:22.825Z,2.17
2022-12-22T21:01:53.022Z,2.32
2022-12-22T21:04:22.369Z,2.50
2022-12-22T21:06:56.408Z,2.38
2022-12-22T21:09:25.616Z,2.20
2022-12-22T21:12:13.130Z,2.19
2022-12-22T21:14:40.763Z,2.11
2022-12-22T21:17:18.053Z,2.16
2022-12-22T21:19:46.941Z,2.34
2022-12-22T21:22:15.883Z,2.23
2022-12-22T21:24:44.008Z,2.23
2022-12-22T21:27:22.515Z,1.97
2022-12-22T21:29:50.004Z,2.13
2022-12-22T21:32:37.569Z,2.17
2022-12-22T21:35:08.468Z,1.92
2022-12-22T21:37:36.230Z,1.97
2022-12-22T21:40:04.068Z,1.91
2022-12-22T21:42:31.678Z,1.97
2022-12-22T21:45:00.660Z,2.02
2022-12-22T21:47:28.185Z,2.11
2022-12-22T21:49:55.719Z,1.90
2022-12-22T21:52:23.250Z,1.85
2022-12-22T21:54:51.892Z,1.98
2022-12-22T21:57:20.817Z,1.97
2022-12-22T21:59:48.405Z,1.84
2022-12-22T22:02:18.986Z,1.84
2022-12-22T22:04:52.056Z,1.82
2022-12-22T22:07:22.424Z,1.88
2022-12-22T22:09:49.944Z,1.88
2022-12-22T22:12:32.503Z,1.87
2022-12-22T22:15:01.965Z,2.01
2022-12-22T22:17:29.764Z,1.92
2022-12-22T22:19:57.288Z,1.84
2022-12-22T22:22:25.795Z,1.82
2022-12-22T22:24:53.810Z,1.54
2022-12-22T22:27:21.494Z,1.47
2022-12-22T22:29:49.182Z,1.55
2022-12-22T22:32:17.081Z,1.54
2022-12-22T22:34:44.599Z,1.50
2022-12-22T22:37:12.182Z,1.49
2022-12-22T22:39:39.753Z,1.33
2022-12-22T22:42:07.667Z,1.47
2022-12-22T22:44:35.171Z,1.57
2022-12-22T22:47:02.811Z,1.73
2022-12-22T22:49:30.425Z,1.60
2022-12-22T22:51:57.956Z,1.43
2022-12-22T22:54:25.587Z,1.49
2022-12-22T22:56:53.962Z,1.54
2022-12-22T22:59:21.475Z,1.43
2022-12-22T23:01:49.032Z,1.43
2022-12-22T23:04:16.776Z,1.41
2022-12-22T23:06:44.882Z,1.47
2022-12-22T23:09:12.450Z,1.36
2022-12-22T23:11:39.922Z,1.32
2022-12-22T23:14:07.483Z,1.36
2022-12-22T23:16:38.466Z,1.36
2022-12-22T23:19:07.285Z,1.44
2022-12-22T23:21:35.232Z,1.38
2022-12-22T23:24:05.737Z,1.24
2022-12-22T23:26:33.497Z,1.22
2022-12-22T23:29:03.740Z,1.30
2022-12-22T23:31:34.000Z,1.16
2022-12-22T23:34:01.748Z,1.13
2022-12-22T23:36:29.346Z,1.20
2022-12-22T23:38:56.871Z,1.19
2022-12-22T23:41:28.505Z,1.13
2022-12-22T23:43:57.970Z,1.11
2022-12-22T23:46:25.619Z,1.06
2022-12-22T23:48:57.447Z,1.21
2022-12-22T23:51:28.801Z,1.20
2022-12-22T23:53:58.459Z,1.10
2022-12-22T23:56:26.151Z,1.05
2022-12-22T23:58:55.144Z,1.01
